Terminal Aerodrome Forecast
Issued by NWS Wilmington, OH

Current Version | Previous Version | Graphics & Text | Print | Product List | Glossary On
Versions: 1 2 3 4 5 6 7 8 9 10 11 12 13 14 15 16 17 18 19 20 21 22 23 24 25 26 27 28
000
FTUS41 KILN 181700
TAFCVG
TAF
KCVG 181732Z 1818/1924 34005KT P6SM -SN BKN022 OVC080
     FM182300 33004KT P6SM OVC050
     FM190700 35004KT P6SM OVC025
     FM191600 32005KT P6SM SCT025 OVC200=

USA.gov is the U.S. government's official web portal to all federal, state and local government web resources and services.